createdAt,value
2023-03-05T00:00:23.391Z,1.09
2023-03-05T00:03:26.612Z,1.12
2023-03-05T00:06:32.973Z,1.13
2023-03-05T00:09:36.165Z,1.38
2023-03-05T00:12:39.342Z,1.13
2023-03-05T00:15:43.108Z,1.20
2023-03-05T00:18:46.360Z,1.24
2023-03-05T00:21:50.881Z,0.73
2023-03-05T00:24:54.211Z,1.08
2023-03-05T00:27:57.390Z,1.19
2023-03-05T00:31:01.869Z,1.20
2023-03-05T00:34:08.032Z,1.20
2023-03-05T00:37:12.599Z,1.20
2023-03-05T00:40:16.096Z,1.16
2023-03-05T00:43:19.348Z,1.22
2023-03-05T00:46:23.082Z,1.19
2023-03-05T00:49:26.401Z,1.17
2023-03-05T00:52:30.946Z,1.11
2023-03-05T00:55:36.048Z,1.17
2023-03-05T00:58:39.802Z,1.15
2023-03-05T01:01:43.078Z,1.15
2023-03-05T01:04:49.564Z,1.18
2023-03-05T01:07:55.720Z,1.22
2023-03-05T01:10:59.361Z,1.24
2023-03-05T01:14:04.577Z,1.15
2023-03-05T01:17:07.720Z,1.32
2023-03-05T01:20:14.410Z,1.21
2023-03-05T01:23:19.208Z,1.15
2023-03-05T01:26:22.413Z,1.20
2023-03-05T01:29:25.664Z,1.14
2023-03-05T01:32:28.824Z,1.12
2023-03-05T01:35:33.888Z,1.10
2023-03-05T01:38:38.375Z,1.17
2023-03-05T01:41:41.502Z,1.17
2023-03-05T01:45:01.156Z,1.21
2023-03-05T01:48:04.748Z,1.08
2023-03-05T01:51:08.577Z,1.10
2023-03-05T01:54:16.373Z,1.15
2023-03-05T01:57:24.021Z,1.14
2023-03-05T02:00:30.382Z,1.14
2023-03-05T02:03:35.224Z,1.18
2023-03-05T02:06:39.632Z,1.14
2023-03-05T02:09:44.211Z,1.13
2023-03-05T02:12:48.713Z,1.09
2023-03-05T02:15:53.730Z,1.10
2023-03-05T02:18:58.102Z,1.15
2023-03-05T02:22:02.770Z,1.04
2023-03-05T02:25:15.323Z,1.08
2023-03-05T02:28:24.015Z,1.07
2023-03-05T02:31:27.642Z,0.97
2023-03-05T02:34:30.858Z,0.97
2023-03-05T02:37:35.508Z,1.08
2023-03-05T02:40:38.956Z,0.93
2023-03-05T02:43:42.317Z,0.97
2023-03-05T02:46:45.493Z,0.91
2023-03-05T02:49:48.767Z,0.92
2023-03-05T02:52:53.402Z,0.98
2023-03-05T02:55:57.627Z,0.71
2023-03-05T02:59:00.923Z,0.91
2023-03-05T03:02:04.118Z,0.91
2023-03-05T03:05:08.290Z,0.93
2023-03-05T03:08:12.773Z,0.90
2023-03-05T03:11:15.927Z,0.85
2023-03-05T03:14:19.209Z,0.82
2023-03-05T03:17:22.344Z,0.80
2023-03-05T03:20:26.617Z,0.80
2023-03-05T03:23:31.690Z,0.80
2023-03-05T03:26:34.803Z,0.82
2023-03-05T03:29:38.801Z,0.80
2023-03-05T03:32:41.997Z,0.84
2023-03-05T03:35:46.307Z,0.79
2023-03-05T03:38:51.129Z,0.86
2023-03-05T03:41:54.882Z,0.80
2023-03-05T03:44:58.156Z,0.89
2023-03-05T03:48:01.350Z,0.79
2023-03-05T03:51:08.816Z,0.86
2023-03-05T03:54:14.333Z,0.61
2023-03-05T03:57:17.520Z,0.95
2023-03-05T04:00:21.268Z,0.85
2023-03-05T04:03:24.552Z,0.78
2023-03-05T04:06:28.092Z,0.84
2023-03-05T04:09:32.713Z,0.78
2023-03-05T04:12:35.889Z,0.84
2023-03-05T04:15:39.121Z,0.78
2023-03-05T04:18:42.938Z,0.73
2023-03-05T04:21:46.183Z,0.79
2023-03-05T04:24:50.639Z,0.74
2023-03-05T04:27:53.876Z,0.73
2023-03-05T04:34:24.972Z,0.82
2023-03-05T04:37:28.323Z,0.79
2023-03-05T04:40:31.568Z,0.95
2023-03-05T04:43:34.691Z,0.89
2023-03-05T04:46:37.888Z,0.85
2023-03-05T04:49:42.612Z,0.84
2023-03-05T04:52:47.000Z,0.93
2023-03-05T04:55:54.072Z,0.80
2023-03-05T04:58:57.253Z,0.70
2023-03-05T05:02:00.751Z,0.67
2023-03-05T05:05:05.621Z,0.82
2023-03-05T05:08:08.841Z,0.70
2023-03-05T05:11:15.144Z,0.72
2023-03-05T05:14:18.895Z,0.77
2023-03-05T05:17:22.374Z,0.68
2023-03-05T05:20:29.871Z,0.28
2023-03-05T05:23:33.324Z,0.72
2023-03-05T05:26:36.442Z,0.66
2023-03-05T05:29:39.650Z,0.68
2023-03-05T05:32:42.920Z,0.73
2023-03-05T05:35:47.594Z,0.67
2023-03-05T05:38:51.549Z,0.71
2023-03-05T05:41:54.872Z,0.59
2023-03-05T05:44:58.274Z,0.65
2023-03-05T05:48:01.424Z,0.78
2023-03-05T05:51:08.732Z,0.65
2023-03-05T05:54:14.056Z,0.71
2023-03-05T05:57:17.222Z,0.67
2023-03-05T06:00:20.958Z,0.70
2023-03-05T06:03:24.227Z,0.69
2023-03-05T06:06:30.128Z,0.64
2023-03-05T06:09:33.617Z,0.66
2023-03-05T06:12:36.991Z,0.70
2023-03-05T06:15:40.218Z,0.69
2023-03-05T06:18:43.653Z,0.68
2023-03-05T06:21:48.167Z,0.72
2023-03-05T06:24:51.308Z,0.68
2023-03-05T06:27:54.657Z,0.76
2023-03-05T06:31:02.146Z,0.78
2023-03-05T06:34:05.785Z,0.76
2023-03-05T06:37:10.290Z,0.77
2023-03-05T06:40:14.695Z,0.79
2023-03-05T06:43:17.882Z,0.81
2023-03-05T06:46:22.994Z,0.89
2023-03-05T06:49:26.190Z,0.96
2023-03-05T06:52:30.737Z,0.90
2023-03-05T06:55:39.728Z,1.01
2023-03-05T06:58:42.985Z,0.95
2023-03-05T07:01:46.413Z,0.98
2023-03-05T07:04:49.611Z,0.95
2023-03-05T07:07:54.300Z,0.91
2023-03-05T07:10:57.666Z,1.08
2023-03-05T07:14:01.409Z,0.99
2023-03-05T07:17:04.674Z,0.94
2023-03-05T07:20:09.611Z,0.90
2023-03-05T07:23:14.475Z,0.99
2023-03-05T07:26:17.861Z,1.01
2023-03-05T07:29:21.031Z,1.05
2023-03-05T07:32:24.239Z,1.03
2023-03-05T07:35:27.914Z,1.00
2023-03-05T07:38:32.614Z,1.09
2023-03-05T07:41:35.858Z,1.27
2023-03-05T07:44:39.856Z,1.29
2023-03-05T07:47:42.979Z,1.43
2023-03-05T07:50:46.121Z,1.33
2023-03-05T07:53:52.200Z,1.38
2023-03-05T07:56:55.697Z,1.41
2023-03-05T07:59:58.949Z,1.45
2023-03-05T08:03:02.175Z,1.53
2023-03-05T08:06:06.572Z,1.57
2023-03-05T08:09:11.099Z,1.13
2023-03-05T08:12:14.266Z,1.61
2023-03-05T08:15:17.998Z,1.81
2023-03-05T08:18:21.176Z,1.78
2023-03-05T08:21:29.336Z,1.64
2023-03-05T08:24:33.992Z,1.78
2023-03-05T08:27:39.927Z,1.91
2023-03-05T08:30:43.086Z,1.81
2023-03-05T08:33:46.435Z,1.93
2023-03-05T08:36:50.139Z,1.99
2023-03-05T08:39:56.184Z,2.07
2023-03-05T08:43:00.158Z,2.06
2023-03-05T08:46:04.665Z,2.00
2023-03-05T08:49:08.324Z,1.97
2023-03-05T08:52:11.944Z,2.04
2023-03-05T08:55:16.935Z,1.86
2023-03-05T08:58:20.090Z,1.91
2023-03-05T09:01:23.909Z,1.85
2023-03-05T09:04:27.237Z,1.92
2023-03-05T09:07:30.428Z,2.00
2023-03-05T09:10:35.435Z,2.18
2023-03-05T09:13:38.657Z,2.00
2023-03-05T09:16:41.976Z,1.92
2023-03-05T09:19:45.189Z,1.93
2023-03-05T09:22:48.374Z,2.05
2023-03-05T09:25:53.013Z,2.21
2023-03-05T09:28:56.387Z,2.10
2023-03-05T09:31:59.621Z,2.11
2023-03-05T09:35:02.879Z,2.00
2023-03-05T09:38:06.117Z,1.99
2023-03-05T09:41:18.681Z,1.92
2023-03-05T09:44:29.320Z,2.13
2023-03-05T09:47:46.325Z,1.87
2023-03-05T09:50:53.390Z,1.75
2023-03-05T09:54:03.191Z,1.85
2023-03-05T09:57:17.349Z,1.86
2023-03-05T10:00:30.913Z,1.73
2023-03-05T10:03:48.461Z,1.65
2023-03-05T10:06:56.195Z,1.65
2023-03-05T10:10:01.189Z,1.56
2023-03-05T10:13:13.045Z,1.71
2023-03-05T10:16:39.948Z,1.71
2023-03-05T10:20:06.144Z,1.72
2023-03-05T10:23:26.789Z,1.69
2023-03-05T10:26:58.518Z,1.60
2023-03-05T10:34:46.112Z,1.76
2023-03-05T10:38:08.948Z,1.72
2023-03-05T10:41:22.254Z,1.86
2023-03-05T10:44:34.482Z,1.70
2023-03-05T10:47:45.736Z,1.84
2023-03-05T10:50:55.041Z,2.02
2023-03-05T10:54:00.109Z,2.33
2023-03-05T10:57:14.882Z,2.07
2023-03-05T11:00:20.850Z,1.98
2023-03-05T11:03:24.340Z,1.95
2023-03-05T11:06:34.965Z,1.97
2023-03-05T11:09:38.255Z,2.15
2023-03-05T11:12:41.462Z,2.12
2023-03-05T11:15:44.720Z,2.22
2023-03-05T11:18:48.045Z,2.25
2023-03-05T11:22:14.539Z,2.36
2023-03-05T11:25:21.357Z,2.78
2023-03-05T11:28:33.038Z,2.58
2023-03-05T11:31:36.997Z,2.55
2023-03-05T11:34:43.268Z,2.31
2023-03-05T11:38:01.328Z,2.41
2023-03-05T11:41:04.612Z,2.54
2023-03-05T11:44:13.820Z,2.60
2023-03-05T11:47:27.639Z,2.53
2023-03-05T11:50:32.572Z,2.68
2023-03-05T11:53:38.046Z,2.58
2023-03-05T11:56:45.130Z,2.39
2023-03-05T11:59:49.043Z,2.81
2023-03-05T12:02:55.701Z,2.46
2023-03-05T12:06:03.673Z,2.52
2023-03-05T12:09:13.293Z,2.51
2023-03-05T12:12:30.827Z,2.28
2023-03-05T12:15:46.760Z,2.31
2023-03-05T12:18:58.686Z,2.35
2023-03-05T12:22:03.513Z,2.46
2023-03-05T12:25:28.338Z,2.36
2023-03-05T12:28:54.836Z,2.86
2023-03-05T12:31:58.863Z,2.62
2023-03-05T12:35:04.309Z,2.56
2023-03-05T12:38:32.058Z,2.53
2023-03-05T12:41:37.677Z,2.49
2023-03-05T12:44:40.848Z,2.62
2023-03-05T12:47:45.120Z,2.56
2023-03-05T12:50:49.644Z,2.52
2023-03-05T12:53:52.972Z,2.63
2023-03-05T12:56:58.913Z,2.70
2023-03-05T13:00:08.062Z,2.59
2023-03-05T13:03:17.186Z,2.55
2023-03-05T13:06:29.774Z,2.58
2023-03-05T13:09:36.345Z,2.43
2023-03-05T13:12:41.071Z,2.49
2023-03-05T13:15:46.905Z,2.50
2023-03-05T13:18:51.542Z,2.64
2023-03-05T13:22:11.713Z,2.40
2023-03-05T13:25:20.377Z,2.44
2023-03-05T13:28:25.184Z,2.52
2023-03-05T13:31:28.836Z,2.34
2023-03-05T13:34:46.207Z,2.42
2023-03-05T13:37:51.065Z,2.26
2023-03-05T13:41:19.384Z,2.25
2023-03-05T13:44:29.472Z,2.33
2023-03-05T13:47:34.599Z,2.51
2023-03-05T13:50:40.779Z,2.41
2023-03-05T13:53:44.728Z,1.81
2023-03-05T13:56:53.655Z,2.15
2023-03-05T13:59:58.136Z,2.47
2023-03-05T14:03:09.772Z,2.23
2023-03-05T14:06:19.529Z,2.36
2023-03-05T14:09:26.200Z,2.47
2023-03-05T14:12:34.465Z,2.38
2023-03-05T14:15:39.200Z,2.52
2023-03-05T14:18:55.123Z,2.36
2023-03-05T14:21:58.443Z,2.40
2023-03-05T14:25:02.019Z,2.22
2023-03-05T14:28:07.598Z,2.38
2023-03-05T14:31:17.720Z,2.32
2023-03-05T14:34:25.223Z,2.26
2023-03-05T14:37:36.518Z,2.13
2023-03-05T14:40:39.682Z,2.34
2023-03-05T14:43:42.920Z,2.35
2023-03-05T14:46:50.923Z,2.42
2023-03-05T14:49:54.420Z,2.39
2023-03-05T14:53:00.234Z,2.38
2023-03-05T14:56:03.709Z,2.27
2023-03-05T14:59:07.302Z,2.29
2023-03-05T15:02:16.439Z,2.21
2023-03-05T15:05:20.874Z,2.21
2023-03-05T15:08:26.872Z,2.24
2023-03-05T15:16:20.253Z,2.20
2023-03-05T15:19:28.006Z,2.19
2023-03-05T15:22:31.276Z,2.16
2023-03-05T15:25:35.325Z,2.20
2023-03-05T15:28:40.017Z,2.17
2023-03-05T15:31:43.131Z,2.13
2023-03-05T15:34:47.801Z,2.15
2023-03-05T15:37:51.214Z,2.07
2023-03-05T15:40:54.710Z,2.05
2023-03-05T15:43:57.828Z,1.98
2023-03-05T15:47:00.925Z,1.99
2023-03-05T15:50:06.662Z,2.05
2023-03-05T15:53:10.023Z,2.17
2023-03-05T15:56:17.414Z,2.06
2023-03-05T15:59:20.865Z,2.05
2023-03-05T16:02:25.066Z,2.07
2023-03-05T16:05:29.810Z,2.03
2023-03-05T16:08:36.113Z,2.02
2023-03-05T16:11:47.737Z,1.96
2023-03-05T16:14:52.125Z,1.97
2023-03-05T16:17:56.930Z,1.89
2023-03-05T16:21:02.188Z,1.97
2023-03-05T16:24:05.726Z,1.94
2023-03-05T16:27:12.376Z,1.85
2023-03-05T16:34:24.645Z,1.83
2023-03-05T16:37:27.931Z,1.78
2023-03-05T16:40:56.633Z,1.79
2023-03-05T16:43:57.889Z,1.62
2023-03-05T16:47:01.144Z,1.75
2023-03-05T16:50:07.507Z,1.77
2023-03-05T16:53:10.813Z,1.73
2023-03-05T16:56:14.130Z,1.70
2023-03-05T16:59:17.685Z,1.67
2023-03-05T17:02:20.978Z,1.64
2023-03-05T17:05:29.783Z,1.65
2023-03-05T17:08:33.172Z,1.58
2023-03-05T17:11:36.428Z,1.57
2023-03-05T17:14:39.921Z,1.49
2023-03-05T17:17:43.068Z,1.63
2023-03-05T17:20:47.600Z,1.51
2023-03-05T17:23:53.487Z,1.44
2023-03-05T17:26:56.711Z,1.58
2023-03-05T17:29:59.922Z,1.48
2023-03-05T17:33:04.109Z,1.52
2023-03-05T17:36:13.914Z,1.16
2023-03-05T17:39:18.832Z,1.35
2023-03-05T17:42:22.509Z,1.21
2023-03-05T17:45:27.787Z,1.33
2023-03-05T17:48:30.983Z,1.43
2023-03-05T18:03:09.775Z,1.55
2023-03-05T18:06:33.290Z,1.35
2023-03-05T18:09:37.039Z,1.05
2023-03-05T18:12:40.305Z,1.36
2023-03-05T18:15:47.494Z,1.41
2023-03-05T18:18:52.151Z,1.58
2023-03-05T18:21:55.458Z,1.23
2023-03-05T18:25:03.669Z,1.35
2023-03-05T18:28:09.063Z,1.25
2023-03-05T18:31:12.291Z,1.53
2023-03-05T18:34:17.557Z,1.31
2023-03-05T18:37:20.794Z,1.23
2023-03-05T18:40:27.697Z,1.83
2023-03-05T18:43:31.277Z,1.63
2023-03-05T18:46:34.419Z,1.20
2023-03-05T18:49:38.916Z,1.12
2023-03-05T18:52:42.424Z,1.05
2023-03-05T18:55:45.792Z,1.12
2023-03-05T18:58:49.196Z,1.11
2023-03-05T19:01:52.351Z,1.21
2023-03-05T19:04:59.290Z,1.29
2023-03-05T19:08:04.700Z,1.12
2023-03-05T19:11:17.410Z,1.15
2023-03-05T19:14:20.592Z,1.11
2023-03-05T19:17:23.739Z,1.08
2023-03-05T19:20:28.392Z,1.29
2023-03-05T19:23:31.614Z,1.09
2023-03-05T19:26:35.199Z,1.10
2023-03-05T19:29:40.182Z,1.04
2023-03-05T19:32:47.067Z,1.12
2023-03-05T19:35:51.877Z,1.26
2023-03-05T19:38:55.102Z,1.20
2023-03-05T19:41:58.856Z,1.13
2023-03-05T19:45:02.301Z,0.96
2023-03-05T19:48:06.057Z,1.03
2023-03-05T19:51:13.192Z,0.99
2023-03-05T19:54:18.234Z,1.06
2023-03-05T19:57:21.503Z,1.09
2023-03-05T20:00:26.246Z,1.01
2023-03-05T20:03:29.483Z,0.86
2023-03-05T20:06:34.696Z,1.29
2023-03-05T20:09:38.104Z,1.69
2023-03-05T20:12:41.382Z,1.16
2023-03-05T20:15:44.539Z,0.97
2023-03-05T20:18:52.516Z,1.48
2023-03-05T20:21:56.994Z,1.37
2023-03-05T20:25:00.273Z,0.76
2023-03-05T20:28:03.617Z,0.91
2023-03-05T20:31:06.767Z,0.68
2023-03-05T20:34:12.346Z,0.81
2023-03-05T20:37:16.882Z,1.19
2023-03-05T20:40:20.317Z,0.91
2023-03-05T20:43:24.456Z,0.92
2023-03-05T20:46:29.819Z,0.82
2023-03-05T20:49:32.972Z,0.83
2023-03-05T20:52:37.651Z,1.13
2023-03-05T20:55:40.936Z,0.74
2023-03-05T20:58:44.342Z,0.61
2023-03-05T21:01:47.448Z,0.57
2023-03-05T21:04:50.702Z,0.58
2023-03-05T21:07:55.810Z,0.71
2023-03-05T21:10:59.272Z,0.64
2023-03-05T21:14:02.670Z,0.61
2023-03-05T21:17:06.149Z,0.63
2023-03-05T21:20:14.181Z,0.64
2023-03-05T21:23:18.757Z,0.95
2023-03-05T21:26:22.462Z,0.61
2023-03-05T21:29:25.772Z,0.64
2023-03-05T21:32:28.904Z,0.61
2023-03-05T21:35:33.519Z,1.14
2023-03-05T21:38:38.052Z,0.58
2023-03-05T21:41:41.155Z,0.57
2023-03-05T21:44:44.375Z,0.81
2023-03-05T21:47:49.180Z,0.79
2023-03-05T21:50:52.659Z,1.12
2023-03-05T21:53:57.139Z,0.89
2023-03-05T21:57:00.444Z,0.55
2023-03-05T22:00:05.826Z,0.50
2023-03-05T22:03:15.253Z,0.57
2023-03-05T22:06:19.620Z,0.53
2023-03-05T22:09:24.125Z,0.41
2023-03-05T22:12:43.012Z,0.69
2023-03-05T22:15:46.965Z,0.47
2023-03-05T22:18:49.954Z,0.71
2023-03-05T22:21:53.058Z,0.46
2023-03-05T22:24:57.665Z,0.32
2023-03-05T22:28:00.873Z,0.46
2023-03-05T22:34:24.466Z,0.77
2023-03-05T22:37:29.377Z,0.42
2023-03-05T22:40:32.738Z,0.89
2023-03-05T22:43:35.903Z,0.75
2023-03-05T22:46:39.288Z,0.52
2023-03-05T22:49:46.459Z,1.06
2023-03-05T22:52:50.026Z,1.06
2023-03-05T22:55:53.994Z,0.46
2023-03-05T22:58:57.908Z,0.67
2023-03-05T23:02:01.056Z,0.39
2023-03-05T23:05:07.208Z,0.35
2023-03-05T23:08:10.397Z,0.51
2023-03-05T23:11:14.426Z,0.75
2023-03-05T23:14:17.626Z,0.40
2023-03-05T23:17:20.905Z,0.23
2023-03-05T23:20:27.092Z,0.27
2023-03-05T23:23:30.228Z,0.31
2023-03-05T23:26:33.428Z,0.22
2023-03-05T23:29:53.143Z,0.34
2023-03-05T23:32:58.495Z,0.23
2023-03-05T23:36:03.142Z,0.32
2023-03-05T23:39:06.284Z,0.20
2023-03-05T23:42:10.382Z,0.10
2023-03-05T23:45:15.416Z,0.10
2023-03-05T23:48:18.819Z,0.25
2023-03-05T23:51:23.326Z,0.10
2023-03-05T23:54:26.522Z,0.10
2023-03-05T23:57:29.633Z,0.13
